Terminal Aerodrome Forecast
Issued by NWS

Home | Current Version | Previous Version | Text Only | Print | Product List | Glossary On
Versions: 1 2 3 4 5 6 7 8 9 10 11 12 13 14 15 16 17 18 19 20 21 22 23 24 25 26 27 28
984
FTUS46 KMTR 062206 AAB
TAFSFO
TAF AMD
KSFO 062206Z 0622/0724 29016G21KT P6SM SCT040 SCT200
     FM070500 29005KT P6SM SCT150
     FM071000 09004KT P6SM BKN150
     FM071700 09004KT P6SM BKN100=

USA.gov is the U.S. government's official web portal to all federal, state and local government web resources and services.